• Join FlightAware (Why Join?)
  • Login
  • US Flag 
08:27PM EDT


 

Airport Tracker/Info


-or-


 

Live Flight TrackerFlight Track Log ✈ N136JP ✈ 13-Sep-2013 ✈ KTUL - KTEB

Flight Track Log - Related Links

Times and Time Zones

All times are in EDT time to prevent confusion due to time zone crossing. See the N136JP flight status page for this flight to view local times or setup timezone preferences in your user account.

Time Position Orientation Groundspeed Altitude Reporting Facility
EDT Latitude Longitude Course Direction KTS MPH feet Rate Location/Type
06:27PM 36.2214 -95.8989 359° North 189 217 1,200  Level Kansas City Center
06:28PM 36.2569 -95.8994 359° North 224 258 2,100 1,560 Climbing Kansas City Center
06:29PM 36.2889 -95.9003 359° North 241 277 3,100 2,100 Climbing Kansas City Center
06:30PM 36.3592 -95.8803 13° North 265 305 5,500 2,580 Climbing Kansas City Center
06:31PM 36.4017 -95.7758 63° Northeast 278 320 8,500 2,640 Climbing Kansas City Center
06:32PM 36.4400 -95.6839 63° Northeast 292 336 11,000 2,400 Climbing Kansas City Center
06:33PM 36.4772 -95.5875 64° Northeast 302 348 13,500 2,220 Climbing Kansas City Center
06:34PM 36.5189 -95.4886 62° Northeast 308 354 15,600 1,680 Climbing Kansas City Center
06:35PM 36.5592 -95.3853 64° Northeast 322 371 17,100 1,500 Climbing Kansas City Center
06:36PM 36.6058 -95.2769 62° Northeast 344 396 18,800 1,680 Climbing Kansas City Center
06:37PM 36.6467 -95.1644 66° East 353 406 20,600 1,740 Climbing Kansas City Center
06:38PM 36.6906 -95.0533 64° Northeast 356 410 22,400 1,320 Climbing Kansas City Center
06:39PM 36.7325 -94.9386 65° Northeast 360 414 23,400 960 Climbing Kansas City Center
06:40PM 36.7953 -94.7925 62° Northeast 390 449 24,400 1,020 Climbing Kansas City Center
06:41PM 36.8439 -94.6653 64° Northeast 402 463 25,600 1,080 Climbing Kansas City Center
06:42PM 36.8919 -94.5361 65° Northeast 408 470 26,700 1,200 Climbing Kansas City Center
06:43PM 36.9464 -94.4125 61° Northeast 406 467 28,100 1,200 Climbing Kansas City Center
06:44PM 36.9994 -94.2897 62° Northeast 402 463 29,300 720 Climbing Kansas City Center
06:45PM 37.0561 -94.1644 60° Northeast 409 471 29,700 480 Climbing Kansas City Center
06:46PM 37.1122 -94.0297 62° Northeast 429 494 30,400 840 Climbing Kansas City Center
06:47PM 37.1783 -93.8831 60° Northeast 433 498 31,500 960 Climbing Kansas City Center
06:48PM 37.2344 -93.7492 62° Northeast 432 497 32,500 960 Climbing Kansas City Center
06:49PM 37.2900 -93.6161 62° Northeast 430 495 33,600 1,080 Climbing Kansas City Center
06:50PM 37.3586 -93.4600 61° Northeast 426 490 34,800 780 Climbing Kansas City Center
06:51PM 37.4139 -93.3244 63° Northeast 431 496 35,300 900 Climbing Kansas City Center
06:52PM 37.4728 -93.1925 61° Northeast 433 498 36,700 1,260 Climbing Kansas City Center
06:53PM 37.5269 -93.0628 62° Northeast 422 486 38,000 960 Climbing Kansas City Center
06:54PM 37.5806 -92.9367 62° Northeast 413 475 38,800 480 Climbing Kansas City Center
06:56PM 37.6333 -92.8072 63° Northeast 413 475 39,000 60 Climbing Kansas City Center
06:57PM 37.6944 -92.6578 63° Northeast 435 501 39,000  Level Kansas City Center
06:58PM 37.7528 -92.5228 61° Northeast 439 505 39,000  Level Kansas City Center
06:59PM 37.8072 -92.3831 64° Northeast 443 510 39,000  Level Kansas City Center
07:00PM 37.8647 -92.2458 62° Northeast 447 514 39,000  Level Kansas City Center
07:01PM 37.9319 -92.0781 63° Northeast 448 516 39,000  Level Kansas City Center
07:02PM 37.9939 -91.9356 61° Northeast 442 509 39,000  Level Kansas City Center
07:03PM 38.0475 -91.7958 64° Northeast 441 507 39,000  Level Kansas City Center
07:04PM 38.1053 -91.6583 62° Northeast 442 509 39,000  Level Kansas City Center
07:05PM 38.1600 -91.5181 64° Northeast 443 510 39,000  Level Kansas City Center
07:06PM 38.2069 -91.3822 66° East 445 512 39,000  Level Kansas City Center
07:07PM 38.2808 -91.2225 59° Northeast 439 505 39,000  Level Kansas City Center
07:08PM 38.3325 -91.0808 65° Northeast 441 507 39,000  Level Kansas City Center
07:09PM 38.3886 -90.9431 63° Northeast 440 506 39,000  Level Kansas City Center
07:10PM 38.4428 -90.8047 63° Northeast 439 505 39,000  Level Kansas City Center
07:11PM 38.4992 -90.6536 64° Northeast 439 505 39,000  Level Kansas City Center
07:12PM 38.5550 -90.5150 63° Northeast 439 505 39,000  Level Kansas City Center
07:13PM 38.6011 -90.3672 68° East 446 513 39,000  Level Kansas City Center
07:14PM 38.6689 -90.2019 62° Northeast 443 510 39,000  Level Kansas City Center
07:15PM 38.7228 -90.0608 64° Northeast 438 504 39,000  Level Kansas City Center
07:16PM 38.7714 -89.9081 68° East 457 526 39,000  Level Kansas City Center
07:17PM 38.8292 -89.7717 61° Northeast 441 507 39,000  Level Kansas City Center
07:18PM 38.8869 -89.6156 65° Northeast 435 501 39,000  Level Kansas City Center
07:19PM 38.9411 -89.4761 63° Northeast 436 502 39,000  Level Kansas City Center
07:20PM 38.9953 -89.3358 64° Northeast 438 504 39,000  Level Kansas City Center
07:21PM 39.0500 -89.1828 65° Northeast 438 504 39,000  Level Kansas City Center
07:22PM 39.1047 -89.0436 63° Northeast 436 502 39,000  Level Kansas City Center
07:23PM 39.1556 -88.9017 65° Northeast 439 505 39,000  Level Kansas City Center
07:26PM 39.2575 -88.6200 65° Northeast 435 501 39,000  Level Kansas City Center
07:27PM 39.3158 -88.4719 63° Northeast 432 497 39,000  Level Kansas City Center
07:28PM 39.3650 -88.3292 66° East 432 497 39,000  Level Kansas City Center
07:29PM 39.4156 -88.1908 65° Northeast 428 493 39,000  Level Kansas City Center
07:30PM 39.4639 -88.0503 66° East 426 490 39,000  Level Kansas City Center
07:31PM 39.5183 -87.8972 65° Northeast 427 491 39,000  Level Indianapolis Center
07:32PM 39.5689 -87.7567 65° Northeast 430 495 39,000  Level Indianapolis Center
07:33PM 39.6158 -87.6139 67° East 433 498 39,000  Level Indianapolis Center
07:34PM 39.6786 -87.4461 64° Northeast 431 496 39,000  Level Indianapolis Center
07:35PM 39.7156 -87.3317 67° East 431 496 39,000  Level Indianapolis Center
07:36PM 39.7686 -87.1917 64° Northeast 432 497 39,000  Level Indianapolis Center
07:37PM 39.8158 -87.0464 67° East 436 502 39,000  Level Indianapolis Center
07:38PM 39.8675 -86.9053 64° Northeast 433 498 39,000  Level Indianapolis Center
07:39PM 39.8981 -86.7519 75° East 453 521 39,000  Level Indianapolis Center
07:40PM 39.9078 -86.5872 86° East 455 524 39,000  Level Indianapolis Center
07:41PM 39.9350 -86.4281 77° East 449 517 39,000  Level Indianapolis Center
07:42PM 39.9553 -86.2647 81° East 450 518 39,000  Level Indianapolis Center
07:43PM 39.9789 -86.0689 81° East 451 519 39,000  Level Indianapolis Center
07:44PM 39.9983 -85.9078 81° East 449 517 39,000  Level Indianapolis Center
07:45PM 40.0181 -85.7453 81° East 452 520 39,000  Level Indianapolis Center
07:46PM 40.0389 -85.5856 80° East 449 517 39,000  Level Indianapolis Center
07:47PM 40.0578 -85.4225 81° East 455 524 39,000  Level Indianapolis Center
07:48PM 40.0800 -85.2603 80° East 454 522 39,000  Level Indianapolis Center
07:49PM 40.0961 -85.0958 83° East 457 526 39,000  Level Indianapolis Center
07:50PM 40.1208 -84.9008 81° East 458 527 39,000  Level Indianapolis Center
07:51PM 40.1347 -84.7550 83° East 460 529 39,000  Level Indianapolis Center
07:52PM 40.1558 -84.5914 80° East 459 528 39,000  Level Indianapolis Center
07:53PM 40.1775 -84.3914 82° East 461 531 39,000  Level Indianapolis Center
07:54PM 40.1975 -84.2244 81° East 464 534 39,000  Level Indianapolis Center
07:55PM 40.2144 -84.0558 82° East 467 537 39,000  Level Indianapolis Center
07:56PM 40.2322 -83.8869 82° East 467 537 39,000  Level Indianapolis Center
07:57PM 40.2511 -83.7178 82° East 467 537 39,000  Level Indianapolis Center
07:58PM 40.2669 -83.5469 83° East 469 540 39,000  Level Indianapolis Center
07:59PM 40.2861 -83.3797 81° East 464 534 39,000  Level Indianapolis Center
08:00PM 40.3006 -83.2083 84° East 469 540 39,000  Level Indianapolis Center
08:01PM 40.3206 -83.0394 81° East 468 539 39,000  Level Indianapolis Center
08:02PM 40.3383 -82.8347 83° East 470 541 39,000  Level Indianapolis Center
08:03PM 40.3550 -82.6717 82° East 471 542 39,000  Level Indianapolis Center
08:04PM 40.3669 -82.4975 85° East 475 547 39,000  Level Indianapolis Center
08:05PM 40.3881 -82.3275 81° East 471 542 39,000  Level Indianapolis Center
08:06PM 40.4014 -82.1558 84° East 471 542 39,000  Level Indianapolis Center
08:08PM 40.4161 -81.9822 84° East 473 544 39,000  Level Indianapolis Center
08:09PM 40.4367 -81.7844 82° East 468 539 39,000  Level Indianapolis Center
08:10PM 40.4486 -81.6133 85° East 469 540 39,000  Level Indianapolis Center
08:11PM 40.4644 -81.4422 83° East 470 541 39,000  Level Indianapolis Center
08:12PM 40.4786 -81.2731 84° East 467 537 39,000  Level Indianapolis Center
08:13PM 40.4944 -81.1006 83° East 472 543 39,000  Level Indianapolis Center
08:14PM 40.5078 -80.9297 84° East 470 541 39,000  Level Indianapolis Center
08:15PM 40.5211 -80.7583 84° East 469 540 39,000  Level Indianapolis Center
08:16PM 40.5344 -80.5869 84° East 469 540 39,000  Level Indianapolis Center
08:17PM 40.5492 -80.3867 84° East 468 539 39,000  Level Indianapolis Center
08:18PM 40.5628 -80.2114 84° East 464 534 39,000  Level Cleveland Center
08:19PM 40.5744 -80.0419 85° East 464 534 39,000  Level Cleveland Center
08:20PM 40.5881 -79.8694 84° East 464 534 39,000  Level Cleveland Center
08:21PM 40.5975 -79.7000 86° East 464 534 39,000  Level Cleveland Center
08:22PM 40.6106 -79.5300 84° East 464 534 39,000  Level Cleveland Center
08:23PM 40.6236 -79.3603 84° East 464 534 39,000  Level Cleveland Center
08:24PM 40.6342 -79.1906 85° East 464 534 39,000  Level Cleveland Center
08:25PM 40.6444 -79.0206 85° East 464 534 39,000  Level Cleveland Center
08:26PM 40.6544 -78.8506 86° East 464 534 39,000  Level Cleveland Center
08:27PM 40.6683 -78.6806 84° East 464 534 39,000  Level Cleveland Center
08:29PM 40.7147 -78.2489 82° East 477 549 39,000  Level New York Center
08:30PM 40.7317 -78.0781 82° East 477 549 39,000 -480 Level New York Center
08:31PM 40.7486 -77.9047 83° East 477 549 38,100 -2,040 Descending New York Center
08:32PM 40.7631 -77.7281 84° East 477 549 35,000 -2,940 Descending New York Center
08:33PM 40.7811 -77.5625 82° East 497 572 32,300 -2,640 Descending New York Center
08:34PM 40.8097 -77.3897 78° East 497 572 29,800 -2,280 Descending New York Center
08:35PM 40.8303 -77.2053 82° East 484 557 27,800 -1,800 Descending New York Center
08:36PM 40.8475 -77.0394 82° East 470 541 26,200 -1,680 Descending New York Center
08:37PM 40.8658 -76.8903 81° East 460 529 24,500 -1,560 Descending New York Center
08:38PM 40.8864 -76.7272 80° East 460 529 23,100 -1,560 Descending New York Center
08:39PM 40.9053 -76.5614 81° East 460 529 21,400 -1,680 Descending New York Center
08:40PM 40.9275 -76.3986 80° East 454 522 19,800 -1,260 Descending New York Center
08:41PM 40.9475 -76.2408 80° East 449 517 18,900 -1,680 Descending New York Center
08:42PM 40.9658 -76.0692 82° East 434 499 16,500 -2,160 Descending New York Center
08:43PM 40.9808 -75.9164 83° East 424 488 14,600 -1,800 Descending New York Center
08:44PM 40.9969 -75.7800 81° East 403 464 13,000 -1,860 Descending New York Center
08:45PM 41.0106 -75.6600 81° East 365 420 10,900 -1,500 Descending New York Center
08:46PM 41.0217 -75.5344 83° East 354 407 10,100 -420 Descending New York Center
08:47PM 41.0397 -75.3981 80° East 341 392 10,100 -360 Level New York Center
08:48PM 41.0442 -75.2803 87° East 330 380 9,400 -1,500 Descending New York Center
08:49PM 41.0400 -75.1753 93° East 310 357 7,100 -1,800 Descending New York Center
08:50PM 41.0350 -75.0842 94° East 276 318 5,900 -600 Descending New York Center
08:51PM 40.9989 -74.9858 116° Southeast 263 303 6,000 -720 Climbing New York Center
08:52PM 40.9600 -74.9036 122° Southeast 281 323 4,500 -1,080 Descending New York Center
08:53PM 40.9175 -74.8103 121° Southeast 293 337 3,900 -720 Descending New York Center
08:54PM 40.8775 -74.7036 116° Southeast 293 337 3,100 -480 Descending New York Center
08:55PM 40.8489 -74.6172 114° Southeast 293 337 3,000 -60 Descending New York Center
08:56PM 40.8128 -74.5136 115° Southeast 286 329 3,000  Level New York Center
08:57PM 40.7781 -74.4239 117° Southeast 286 329 3,000 -600 Level New York Center
08:58PM 40.7450 -74.3428 118° Southeast 286 329 1,900 -660 Descending New York Center
08:59PM 40.7478 -74.2581 87° East 231 266 1,700 -300 Descending New York Center
09:00PM 40.7578 -74.1956 78° East 203 234 1,400 -120 Descending New York Center
09:01PM 40.7925 -74.1506 44° Northeast 166 191 1,500 -300 Climbing New York Center
09:02PM 40.8186 -74.1136 47° Northeast 148 170 800 -660 Descending New York Center
09:03PM 40.8425 -74.0764 50° Northeast 138 159 200 6,060 Descending New York Center
09:04PM 40.8725 -74.0422 41° Northeast 138 159 13,000 60 Climbing New York Center
09:06PM 40.8501 -74.0608 212° Southwest  Level Estimated
09:16PM 40.9333 -73.9333 56° Northeast 217 250 1,300  Level New York TRACON
09:17PM 40.9500 -73.8500 75° East 225 259 1,300  Level New York TRACON
09:18PM 40.9333 -73.7833 108° East 225 259 1,300  Level New York TRACON
09:19PM 40.9167 -73.7000 105° East 231 266 1,300  Level New York TRACON
09:20PM 40.8667 -73.6333 135° Southeast 233 268 1,300  Level New York TRACON
09:21PM 40.8167 -73.5833 143° Southeast 231 266 1,300  Level New York TRACON